sensor_id;sensor_type;location;lat;lon;timestamp;pressure;altitude;pressure_sealevel;temperature;humidity
48027;BME280;50714;49.208;5.364;2022-12-08T00:05:20;99159.06;;;4.53;91.88
48027;BME280;50714;49.208;5.364;2022-12-08T00:15:39;99139.69;;;4.51;91.43
48027;BME280;50714;49.208;5.364;2022-12-08T00:25:39;99130.03;;;4.50;91.62
48027;BME280;50714;49.208;5.364;2022-12-08T00:35:40;99125.69;;;4.49;92.02
48027;BME280;50714;49.208;5.364;2022-12-08T00:45:41;99126.50;;;4.50;92.08
48027;BME280;50714;49.208;5.364;2022-12-08T00:55:42;99111.31;;;4.50;91.40
48027;BME280;50714;49.208;5.364;2022-12-08T01:05:42;99102.13;;;4.53;91.91
48027;BME280;50714;49.208;5.364;2022-12-08T01:15:43;99095.50;;;4.49;91.87
48027;BME280;50714;49.208;5.364;2022-12-08T01:25:44;99095.28;;;4.50;91.30
48027;BME280;50714;49.208;5.364;2022-12-08T01:35:44;99097.44;;;4.55;91.64
48027;BME280;50714;49.208;5.364;2022-12-08T01:45:45;99104.78;;;4.53;91.50
48027;BME280;50714;49.208;5.364;2022-12-08T01:55:55;99106.63;;;4.52;91.60
48027;BME280;50714;49.208;5.364;2022-12-08T02:05:58;99084.97;;;4.47;90.25
48027;BME280;50714;49.208;5.364;2022-12-08T02:47:10;99059.44;;;4.44;89.90
48027;BME280;50714;49.208;5.364;2022-12-08T03:07:46;99026.25;;;4.31;89.79
48027;BME280;50714;49.208;5.364;2022-12-08T03:17:56;99014.81;;;4.14;89.17
48027;BME280;50714;49.208;5.364;2022-12-08T03:27:58;99000.47;;;4.15;90.26
48027;BME280;50714;49.208;5.364;2022-12-08T03:38:14;98986.47;;;4.13;90.36
48027;BME280;50714;49.208;5.364;2022-12-08T03:48:15;98977.59;;;4.21;90.09
48027;BME280;50714;49.208;5.364;2022-12-08T03:58:15;98971.97;;;4.07;89.11
48027;BME280;50714;49.208;5.364;2022-12-08T04:08:15;98970.91;;;3.86;88.39
48027;BME280;50714;49.208;5.364;2022-12-08T04:18:16;98963.50;;;3.57;88.67
48027;BME280;50714;49.208;5.364;2022-12-08T04:28:16;98957.69;;;3.53;87.92
48027;BME280;50714;49.208;5.364;2022-12-08T04:38:16;98947.88;;;3.37;86.96
48027;BME280;50714;49.208;5.364;2022-12-08T04:48:17;98942.09;;;3.26;86.62
48027;BME280;50714;49.208;5.364;2022-12-08T04:58:18;98951.94;;;3.09;87.51
48027;BME280;50714;49.208;5.364;2022-12-08T05:08:19;98950.78;;;3.12;86.86
48027;BME280;50714;49.208;5.364;2022-12-08T05:18:19;98938.75;;;3.24;87.15
48027;BME280;50714;49.208;5.364;2022-12-08T05:28:20;98947.59;;;3.16;87.57
48027;BME280;50714;49.208;5.364;2022-12-08T05:38:20;98930.09;;;3.22;87.30
48027;BME280;50714;49.208;5.364;2022-12-08T05:48:21;98928.75;;;3.26;88.44
48027;BME280;50714;49.208;5.364;2022-12-08T05:58:22;98923.78;;;3.15;88.31
48027;BME280;50714;49.208;5.364;2022-12-08T06:08:22;98930.28;;;3.12;88.09
48027;BME280;50714;49.208;5.364;2022-12-08T06:18:23;98929.94;;;3.23;89.23
48027;BME280;50714;49.208;5.364;2022-12-08T06:28:23;98927.25;;;3.23;88.73
48027;BME280;50714;49.208;5.364;2022-12-08T06:38:23;98915.78;;;3.15;87.83
48027;BME280;50714;49.208;5.364;2022-12-08T06:48:24;98912.13;;;3.16;89.10
48027;BME280;50714;49.208;5.364;2022-12-08T06:58:24;98907.00;;;3.06;89.57
48027;BME280;50714;49.208;5.364;2022-12-08T07:08:25;98911.28;;;3.15;89.68
48027;BME280;50714;49.208;5.364;2022-12-08T07:18:25;98928.78;;;3.09;89.82
48027;BME280;50714;49.208;5.364;2022-12-08T07:28:26;98904.59;;;3.19;89.32
48027;BME280;50714;49.208;5.364;2022-12-08T07:38:27;98900.78;;;3.22;90.15
48027;BME280;50714;49.208;5.364;2022-12-08T07:48:27;98896.09;;;3.24;90.30
48027;BME280;50714;49.208;5.364;2022-12-08T07:58:27;98899.03;;;3.37;89.58
48027;BME280;50714;49.208;5.364;2022-12-08T08:08:28;98906.19;;;3.45;90.20
48027;BME280;50714;49.208;5.364;2022-12-08T08:18:28;98910.94;;;3.65;89.87
48027;BME280;50714;49.208;5.364;2022-12-08T08:28:28;98893.56;;;3.78;90.39
48027;BME280;50714;49.208;5.364;2022-12-08T08:38:29;98897.69;;;3.80;89.84
48027;BME280;50714;49.208;5.364;2022-12-08T08:48:31;98893.97;;;3.89;89.71
48027;BME280;50714;49.208;5.364;2022-12-08T08:58:31;98894.13;;;3.96;90.90
48027;BME280;50714;49.208;5.364;2022-12-08T09:08:32;98893.66;;;4.15;90.11
48027;BME280;50714;49.208;5.364;2022-12-08T09:18:33;98894.50;;;4.38;90.23
48027;BME280;50714;49.208;5.364;2022-12-08T09:28:33;98882.19;;;4.52;88.57
48027;BME280;50714;49.208;5.364;2022-12-08T09:38:34;98880.94;;;4.63;88.21
48027;BME280;50714;49.208;5.364;2022-12-08T09:48:45;98874.50;;;4.72;87.35
48027;BME280;50714;49.208;5.364;2022-12-08T09:59:29;98872.09;;;4.77;86.34
48027;BME280;50714;49.208;5.364;2022-12-08T10:19:41;98852.13;;;4.88;85.98
48027;BME280;50714;49.208;5.364;2022-12-08T10:29:42;98840.31;;;4.97;85.86
48027;BME280;50714;49.208;5.364;2022-12-08T10:39:42;98822.91;;;5.01;85.21
48027;BME280;50714;49.208;5.364;2022-12-08T10:49:43;98816.47;;;4.95;85.05
48027;BME280;50714;49.208;5.364;2022-12-08T10:59:43;98802.69;;;4.98;85.27
48027;BME280;50714;49.208;5.364;2022-12-08T11:09:48;98785.56;;;4.93;84.90
48027;BME280;50714;49.208;5.364;2022-12-08T11:30:05;98754.38;;;5.14;84.82
48027;BME280;50714;49.208;5.364;2022-12-08T11:40:14;98744.38;;;5.23;83.56
48027;BME280;50714;49.208;5.364;2022-12-08T11:50:24;98735.72;;;5.36;83.21
48027;BME280;50714;49.208;5.364;2022-12-08T12:00:26;98728.97;;;5.40;82.51
48027;BME280;50714;49.208;5.364;2022-12-08T12:10:33;98734.88;;;5.21;82.35
48027;BME280;50714;49.208;5.364;2022-12-08T12:20:45;98712.47;;;5.22;82.40
48027;BME280;50714;49.208;5.364;2022-12-08T12:41:00;98700.28;;;5.34;81.96
48027;BME280;50714;49.208;5.364;2022-12-08T12:51:34;98695.13;;;5.32;81.51
48027;BME280;50714;49.208;5.364;2022-12-08T13:01:40;98699.72;;;5.38;82.23
48027;BME280;50714;49.208;5.364;2022-12-08T13:11:51;98694.09;;;5.33;80.96
48027;BME280;50714;49.208;5.364;2022-12-08T13:21:52;98692.81;;;5.29;80.88
48027;BME280;50714;49.208;5.364;2022-12-08T13:52:18;98664.16;;;5.23;80.53
48027;BME280;50714;49.208;5.364;2022-12-08T14:02:34;98664.97;;;5.24;80.60
48027;BME280;50714;49.208;5.364;2022-12-08T14:12:35;98658.94;;;5.15;81.04
48027;BME280;50714;49.208;5.364;2022-12-08T14:22:38;98666.22;;;5.06;81.16
48027;BME280;50714;49.208;5.364;2022-12-08T14:32:52;98670.44;;;4.94;81.36
48027;BME280;50714;49.208;5.364;2022-12-08T14:43:16;98672.09;;;4.95;81.39
48027;BME280;50714;49.208;5.364;2022-12-08T14:53:16;98668.94;;;4.92;81.77
48027;BME280;50714;49.208;5.364;2022-12-08T15:03:20;98657.91;;;4.80;82.32
48027;BME280;50714;49.208;5.364;2022-12-08T15:13:21;98648.41;;;4.77;82.46
48027;BME280;50714;49.208;5.364;2022-12-08T15:23:30;98656.97;;;4.73;82.67
48027;BME280;50714;49.208;5.364;2022-12-08T15:33:31;98647.16;;;4.59;82.57
48027;BME280;50714;49.208;5.364;2022-12-08T15:43:32;98637.19;;;4.53;82.31
48027;BME280;50714;49.208;5.364;2022-12-08T15:53:32;98637.50;;;4.43;83.61
48027;BME280;50714;49.208;5.364;2022-12-08T16:03:32;98648.25;;;4.35;83.47
48027;BME280;50714;49.208;5.364;2022-12-08T16:13:33;98637.41;;;4.36;83.89
48027;BME280;50714;49.208;5.364;2022-12-08T16:23:51;98616.88;;;4.22;83.34
48027;BME280;50714;49.208;5.364;2022-12-08T16:33:52;98604.06;;;4.18;83.53
48027;BME280;50714;49.208;5.364;2022-12-08T16:43:52;98614.19;;;4.07;84.53
48027;BME280;50714;49.208;5.364;2022-12-08T16:53:54;98625.88;;;4.06;85.24
48027;BME280;50714;49.208;5.364;2022-12-08T17:03:54;98611.88;;;4.04;85.28
48027;BME280;50714;49.208;5.364;2022-12-08T17:13:54;98617.22;;;3.90;85.29
48027;BME280;50714;49.208;5.364;2022-12-08T17:23:55;98602.56;;;3.86;85.16
48027;BME280;50714;49.208;5.364;2022-12-08T17:33:58;98590.75;;;3.51;86.03
48027;BME280;50714;49.208;5.364;2022-12-08T17:43:58;98603.84;;;3.37;86.08
48027;BME280;50714;49.208;5.364;2022-12-08T17:53:59;98604.38;;;3.33;86.43
48027;BME280;50714;49.208;5.364;2022-12-08T18:04:00;98603.31;;;3.42;86.63
48027;BME280;50714;49.208;5.364;2022-12-08T18:14:01;98609.53;;;3.34;86.56
48027;BME280;50714;49.208;5.364;2022-12-08T18:24:15;98611.50;;;3.18;86.67
48027;BME280;50714;49.208;5.364;2022-12-08T18:34:16;98610.91;;;3.07;87.69
48027;BME280;50714;49.208;5.364;2022-12-08T18:44:18;98597.66;;;2.99;88.04
48027;BME280;50714;49.208;5.364;2022-12-08T18:54:18;98579.03;;;2.91;88.26
48027;BME280;50714;49.208;5.364;2022-12-08T19:04:19;98573.66;;;2.99;87.83
48027;BME280;50714;49.208;5.364;2022-12-08T19:14:19;98560.22;;;2.93;87.41
48027;BME280;50714;49.208;5.364;2022-12-08T19:24:22;98563.13;;;3.06;87.76
48027;BME280;50714;49.208;5.364;2022-12-08T19:34:23;98586.28;;;3.05;86.82
48027;BME280;50714;49.208;5.364;2022-12-08T19:44:26;98585.69;;;3.18;87.77
48027;BME280;50714;49.208;5.364;2022-12-08T19:54:45;98570.16;;;3.22;87.25
48027;BME280;50714;49.208;5.364;2022-12-08T20:04:46;98573.47;;;3.24;87.51
48027;BME280;50714;49.208;5.364;2022-12-08T20:14:46;98571.16;;;3.21;87.62
48027;BME280;50714;49.208;5.364;2022-12-08T20:24:47;98562.44;;;3.27;87.43
48027;BME280;50714;49.208;5.364;2022-12-08T20:34:48;98565.53;;;3.16;87.73
48027;BME280;50714;49.208;5.364;2022-12-08T20:44:48;98563.50;;;3.18;88.11
48027;BME280;50714;49.208;5.364;2022-12-08T20:54:49;98565.66;;;3.22;88.37
48027;BME280;50714;49.208;5.364;2022-12-08T21:04:49;98568.50;;;3.21;87.67
48027;BME280;50714;49.208;5.364;2022-12-08T21:14:49;98568.50;;;3.21;87.31
48027;BME280;50714;49.208;5.364;2022-12-08T21:24:50;98553.22;;;3.15;87.11
48027;BME280;50714;49.208;5.364;2022-12-08T21:34:50;98557.22;;;3.11;87.05
48027;BME280;50714;49.208;5.364;2022-12-08T21:44:51;98535.91;;;3.11;86.80
48027;BME280;50714;49.208;5.364;2022-12-08T21:54:51;98532.84;;;2.99;86.61
48027;BME280;50714;49.208;5.364;2022-12-08T22:04:52;98542.25;;;2.87;87.03
48027;BME280;50714;49.208;5.364;2022-12-08T22:14:52;98528.88;;;2.72;86.61
48027;BME280;50714;49.208;5.364;2022-12-08T22:24:52;98537.41;;;2.67;86.85
48027;BME280;50714;49.208;5.364;2022-12-08T22:34:53;98536.19;;;2.47;85.56
48027;BME280;50714;49.208;5.364;2022-12-08T22:44:53;98520.84;;;2.26;85.33
48027;BME280;50714;49.208;5.364;2022-12-08T22:54:53;98522.09;;;2.08;85.70
48027;BME280;50714;49.208;5.364;2022-12-08T23:04:54;98512.91;;;1.79;85.96
48027;BME280;50714;49.208;5.364;2022-12-08T23:14:55;98508.41;;;1.80;86.24
48027;BME280;50714;49.208;5.364;2022-12-08T23:24:56;98501.00;;;1.59;85.81
48027;BME280;50714;49.208;5.364;2022-12-08T23:34:56;98501.34;;;1.48;85.47
48027;BME280;50714;49.208;5.364;2022-12-08T23:44:56;98497.91;;;1.39;85.93
48027;BME280;50714;49.208;5.364;2022-12-08T23:54:57;98480.56;;;1.51;85.50
